Latest Weather Observations for Rhyll

IDV60901

Issued at 6:45 am EDT Friday 24 October 2014 (issued every 10 minutes, with the page automatically refreshed every 10 minutes)

About weather observations | Map of Melbourne area stations | Latest observations for Melbourne area | Other Formats
Station Details ID: 086373 Name: RHYLL Lat: -38.46 Lon: 145.31 Height: 13.4 m
Data from the previous 72 hours. | See also: Recent months at Rhyll
Date/Time
EDT
Tmp

°C
App
Tmp
°C
Dew
Point
°C
Rel
Hum
%
Delta-T

°C
Wind Press
QNH
hPa
Press
MSL
hPa
Rain
since
9 am
mm
Dir
 
Spd
km/h
Gust
km/h
Spd
kts
Gust
kts
24/06:30am 14.8 16.1 14.0 95 0.5 N 0 0 0 0 1012.4 1012.4 0.0
24/06:00am 15.2 16.2 14.2 94 0.6 E 2 4 1 2 1012.6 1012.6 0.0
24/05:30am 14.5 15.2 13.4 93 0.6 E 2 4 1 2 1012.6 1012.6 0.0
24/05:00am 15.4 15.6 14.3 93 0.6 E 6 7 3 4 1012.6 1012.6 0.0
24/04:30am 15.6 15.6 14.1 91 0.8 E 7 9 4 5 1012.6 1012.6 0.0
24/04:00am 16.1 15.8 14.5 90 0.9 E 9 11 5 6 1012.9 1012.9 0.0
24/03:30am 16.4 15.4 14.6 89 1.0 E 13 15 7 8 1013.2 1013.2 0.0
24/03:00am 16.3 14.9 14.5 89 1.0 E 15 17 8 9 1013.6 1013.6 0.0
24/02:30am 16.1 14.2 14.3 89 1.0 E 17 20 9 11 1014.1 1014.1 0.0
24/02:00am 16.2 13.7 14.2 88 1.1 E 20 26 11 14 1014.5 1014.5 0.0
24/01:30am 16.3 13.4 14.1 87 1.2 E 22 28 12 15 1014.9 1014.9 0.0
24/01:00am 16.2 13.3 14.0 87 1.2 E 22 30 12 16 1015.3 1015.3 0.0
24/12:30am 16.1 13.5 13.9 87 1.2 E 20 26 11 14 1015.6 1015.6 0.0
24/12:00am 16.0 13.5 14.0 88 1.1 E 20 26 11 14 1016.0 1016.0 0.0
 
Date/Time
EDT
Tmp

°C
App
Tmp
°C
Dew
Point
°C
Rel
Hum
%
Delta-T

°C
Wind Press
QNH
hPa
Press
MSL
hPa
Rain
since
9 am
mm
Dir
 
Spd
km/h
Gust
km/h
Spd
kts
Gust
kts
23/11:30pm 15.7 13.0 13.5 87 1.2 E 20 26 11 14 1016.1 1016.1 0.0
23/11:00pm 15.8 13.1 13.6 87 1.2 E 20 24 11 13 1016.6 1016.6 0.0
23/10:30pm 15.9 12.9 13.6 86 1.3 E 22 28 12 15 1016.8 1016.8 0.0
23/10:00pm 16.0 12.2 13.7 86 1.3 ESE 26 32 14 17 1017.1 1017.1 0.0
23/09:30pm 15.9 12.1 13.6 86 1.3 ESE 26 32 14 17 1017.2 1017.2 0.0
23/09:00pm 16.0 11.9 13.7 86 1.3 E 28 33 15 18 1017.1 1017.1 0.0
23/08:30pm 16.1 12.0 13.8 86 1.3 E 28 33 15 18 1017.0 1017.0 0.0
23/08:00pm 16.0 11.4 13.5 85 1.4 E 30 37 16 20 1016.9 1016.9 0.0
23/07:30pm 16.5 11.9 13.6 83 1.6 ESE 30 39 16 21 1017.0 1017.0 0.0
23/07:00pm 17.1 12.7 14.0 82 1.8 E 30 37 16 20 1017.0 1017.0 0.0
23/06:30pm 17.3 12.3 14.0 81 1.9 E 33 41 18 22 1016.7 1016.7 0.0
23/06:00pm 17.6 12.7 14.3 81 1.9 E 33 39 18 21 1016.9 1016.9 0.0
23/05:30pm 17.9 13.0 14.4 80 2.0 E 33 41 18 22 1017.0 1017.0 0.0
23/05:00pm 17.9 13.2 14.8 82 1.8 E 33 43 18 23 1017.1 1017.1 0.0
23/04:30pm 17.4 12.6 14.5 83 1.7 ESE 33 41 18 22 1017.2 1017.2 0.0
23/04:00pm 17.1 12.9 14.6 85 1.4 ESE 30 41 16 22 1017.3 1017.3 0.0
23/03:30pm 17.1 11.5 14.4 84 1.5 ESE 37 43 20 23 1017.6 1017.6 0.0
23/03:00pm 17.3 12.6 14.8 85 1.4 ESE 33 39 18 21 1017.9 1017.9 0.0
23/02:30pm 17.1 12.9 14.7 86 1.4 ESE 30 35 16 19 1018.2 1018.2 0.0
23/02:00pm 17.3 14.0 15.1 87 1.3 ESE 26 32 14 17 1018.5 1018.5 0.0
23/01:30pm 17.3 17.1 14.8 85 1.4 SSE 9 13 5 7 1019.0 1019.0 0.0
23/01:00pm 17.2 16.9 14.5 84 1.5 S 9 13 5 7 1019.3 1019.3 0.0
23/12:30pm 16.5 16.5 14.2 86 1.3 S 7 11 4 6 1019.9 1019.9 0.0
23/12:00pm 16.2 16.9 13.5 84 1.5 S 2 4 1 2 1020.3 1020.3 0.0
23/11:30am 15.8 16.1 13.5 86 1.3 E 4 6 2 3 1020.4 1020.4 0.0
23/11:00am 15.2 15.1 13.2 88 1.1 ESE 6 7 3 4 1020.8 1020.8 0.0
23/10:30am 15.2 15.8 13.2 88 1.1 E 2 4 1 2 1021.0 1021.0 0.0
23/10:00am 14.9 15.8 12.9 88 1.1 CALM 0 4 0 2 1020.7 1020.7 0.0
23/09:30am 14.7 15.3 13.1 90 0.9 ESE 2 6 1 3 1020.5 1020.5 0.0
23/09:00am 14.5 15.0 12.9 90 0.9 S 2 6 1 3 1020.4 1020.4 3.8
23/08:30am 14.3 14.5 12.9 91 0.8 S 4 6 2 3 1020.7 1020.7 3.8
23/08:00am 13.9 13.5 12.5 91 0.8 SW 6 9 3 5 1020.4 1020.4 3.8
23/07:30am 14.0 13.5 12.7 92 0.7 SW 7 11 4 6 1020.2 1020.2 3.8
23/07:00am 13.9 13.4 12.6 92 0.7 SW 7 11 4 6 1020.0 1020.0 3.8
23/06:30am 13.8 12.6 12.7 93 0.6 SW 11 17 6 9 1019.6 1019.6 3.8
23/06:00am 13.8 13.0 12.9 94 0.5 SW 9 15 5 8 1019.1 1019.1 3.8
23/05:30am 13.7 12.5 12.8 94 0.5 SW 11 22 6 12 1018.7 1018.7 3.8
23/05:00am 14.0 12.1 13.1 94 0.5 SW 15 24 8 13 1018.3 1018.3 3.8
23/04:30am 14.1 13.1 13.5 96 0.3 SSW 11 19 6 10 1018.2 1018.2 3.8
23/04:00am 14.1 13.2 13.6 97 0.3 SW 11 17 6 9 1018.2 1018.2 3.8
23/03:30am 14.0 13.8 13.5 97 0.3 SW 7 11 4 6 1018.4 1018.4 3.8
23/03:00am 14.0 13.4 13.5 97 0.3 W 9 13 5 7 1018.4 1018.4 3.8
23/02:30am 14.2 13.7 13.7 97 0.3 W 9 13 5 7 1018.5 1018.5 3.8
23/02:00am 14.4 13.5 13.8 96 0.3 W 11 17 6 9 1018.2 1018.2 3.8
23/01:30am 14.7 13.5 13.9 95 0.4 W 13 24 7 13 1018.3 1018.3 3.8
23/01:00am 15.1 15.1 14.1 94 0.6 W 7 19 4 10 1018.3 1018.3 3.6
23/12:30am 15.5 13.3 14.4 93 0.6 W 19 43 10 23 1018.0 1018.0 3.6
23/12:27am 15.5 12.4 14.5 94 0.6 N 24 43 13 23 1017.9 1017.9 3.6
23/12:19am 15.5 11.2 14.5 94 0.6 E 30 48 16 26 1015.7 1015.7 3.6
23/12:18am 15.5 11.6 14.5 94 0.6 E 28 46 15 25 1016.0 1016.0 3.6
23/12:14am 15.5 12.7 14.4 93 0.6 ENE 22 26 12 14 1017.3 1017.3 3.4
23/12:00am 15.6 15.5 14.0 90 0.9 WSW 7 15 4 8 1019.3 1019.3 0.0
 
Date/Time
EDT
Tmp

°C
App
Tmp
°C
Dew
Point
°C
Rel
Hum
%
Delta-T

°C
Wind Press
QNH
hPa
Press
MSL
hPa
Rain
since
9 am
mm
Dir
 
Spd
km/h
Gust
km/h
Spd
kts
Gust
kts
22/11:30pm 15.3 13.7 13.8 91 0.8 WSW 15 35 8 19 1018.5 1018.5 0.0
22/11:00pm 15.3 15.1 13.7 90 0.9 SW 7 15 4 8 1017.8 1017.8 0.0
22/10:30pm 15.7 14.7 13.5 87 1.2 SW 11 20 6 11 1017.4 1017.4 0.0
22/10:00pm 17.7 15.4 13.0 74 2.6 WSW 17 32 9 17 1017.5 1017.5 0.0
22/09:30pm 18.9 17.1 13.3 70 3.2 SW 15 26 8 14 1017.0 1017.0 0.0
22/09:00pm 19.9 20.2 14.5 71 3.1 WSW 6 9 3 5 1016.8 1016.8 0.0
22/08:30pm 19.7 19.1 14.5 72 3.0 SSW 11 15 6 8 1015.7 1015.7 0.0
22/08:00pm 20.0 19.2 15.0 73 2.9 SSW 13 17 7 9 1015.2 1015.2 0.0
22/07:30pm 19.9 18.9 15.5 76 2.6 SSW 15 20 8 11 1015.2 1015.2 0.0
22/07:00pm 23.2 21.2 15.5 62 4.6 SSW 20 26 11 14 1014.4 1014.4 0.0
22/06:30pm 25.2 25.9 15.5 55 5.9 ENE 6 7 3 4 1014.3 1014.3 0.0
22/06:00pm 24.4 25.0 15.3 57 5.5 E 6 7 3 4 1014.4 1014.4 0.0
22/05:30pm 25.1 25.3 16.8 60 5.1 NE 11 13 6 7 1014.5 1014.5 0.0
22/05:00pm 24.7 24.3 16.2 59 5.2 ENE 13 17 7 9 1014.4 1014.4 0.0
22/04:30pm 24.3 23.6 15.5 58 5.3 ENE 13 17 7 9 1014.7 1014.7 0.0
22/04:00pm 27.3 27.3 16.3 51 6.8 ENE 11 15 6 8 1014.9 1014.9 0.0
22/03:30pm 26.8 28.1 17.0 55 6.1 NE 6 9 3 5 1015.2 1015.2 0.0
22/03:00pm 27.0 28.2 16.0 51 6.8 ENE 4 7 2 4 1015.6 1015.6 0.0
22/02:30pm 28.3 29.6 16.2 47 7.5 NE 4 6 2 3 1015.9 1015.9 0.0
22/02:00pm 26.4 27.8 16.3 53 6.2 ENE 4 4 2 2 1016.4 1016.4 0.0
22/01:30pm 25.4 26.6 16.0 56 5.7 NNE 4 7 2 4 1016.7 1016.7 0.0
22/01:00pm 24.9 26.3 16.3 59 5.3 NE 4 6 2 3 1017.1 1017.1 0.0
22/12:30pm 24.4 25.7 15.1 56 5.6 NNE 2 7 1 4 1017.6 1017.6 0.0
22/12:00pm 23.6 25.0 16.4 64 4.4 NE 4 6 2 3 1018.1 1018.1 0.0
22/11:30am 22.6 23.3 14.4 60 4.8 N 4 7 2 4 1018.7 1018.7 0.0
22/11:00am 21.8 21.7 13.9 61 4.6 NNE 7 9 4 5 1019.1 1019.1 0.0
22/10:30am 21.0 20.7 13.4 62 4.4 NE 7 9 4 5 1019.2 1019.2 0.0
22/10:00am 20.3 20.0 13.3 64 4.0 NE 7 7 4 4 1019.3 1019.3 0.0
22/09:30am 19.4 19.7 14.4 73 2.9 ENE 6 9 3 5 1019.4 1019.4 0.0
22/09:00am 17.0 17.3 13.3 79 2.1 N 4 6 2 3 1019.5 1019.5 0.0
22/08:30am 16.3 15.8 12.7 79 2.0 NNE 7 11 4 6 1019.3 1019.3 0.0
22/08:00am 15.0 14.0 12.3 84 1.5 N 9 13 5 7 1019.4 1019.4 0.0
22/07:30am 13.9 12.8 11.8 87 1.1 NNW 9 11 5 6 1019.5 1019.5 0.0
22/07:00am 13.3 12.3 11.0 86 1.2 NW 7 13 4 7 1019.6 1019.6 0.0
22/06:30am 14.1 12.5 11.6 85 1.3 NNE 11 17 6 9 1019.5 1019.5 0.0
22/06:00am 14.0 12.8 11.5 85 1.3 NNE 9 13 5 7 1019.5 1019.5 0.0
22/05:30am 13.1 12.1 11.0 87 1.1 NNW 7 9 4 5 1019.7 1019.7 0.0
22/05:00am 14.1 13.2 11.3 83 1.5 NNE 7 13 4 7 1019.6 1019.6 0.0
22/04:30am 13.8 12.3 11.8 88 1.1 NNE 11 17 6 9 1019.6 1019.6 0.0
22/04:00am 13.6 12.4 11.5 87 1.1 NNW 9 11 5 6 1019.8 1019.8 0.0
22/03:30am 14.1 13.5 11.6 85 1.3 NNW 6 9 3 5 1020.1 1020.1 0.0
22/03:00am 14.0 13.0 11.0 82 1.6 NNW 7 9 4 5 1020.4 1020.4 0.0
22/02:30am 14.4 13.6 11.0 80 1.8 N 6 9 3 5 1020.7 1020.7 0.0
22/02:00am 14.8 13.7 11.8 82 1.6 NNE 9 11 5 6 1021.0 1021.0 0.0
22/01:30am 14.4 12.8 11.6 83 1.5 NE 11 13 6 7 1021.5 1021.5 0.0
22/01:00am 14.8 14.0 11.6 81 1.7 NNE 7 7 4 4 1022.0 1022.0 0.0
22/12:30am 15.0 13.7 11.4 79 1.9 NNE 9 13 5 7 1022.5 1022.5 0.0
22/12:00am 14.9 13.5 12.2 84 1.5 NE 11 13 6 7 1022.7 1022.7 0.0
 
Date/Time
EDT
Tmp

°C
App
Tmp
°C
Dew
Point
°C
Rel
Hum
%
Delta-T

°C
Wind Press
QNH
hPa
Press
MSL
hPa
Rain
since
9 am
mm
Dir
 
Spd
km/h
Gust
km/h
Spd
kts
Gust
kts
21/11:30pm 15.0 15.1 12.7 86 1.3 NE 4 6 2 3 1023.1 1023.1 0.0
21/11:00pm 14.3 13.7 12.3 88 1.1 ENE 7 9 4 5 1023.5 1023.5 0.0
21/10:30pm 15.0 14.1 12.7 86 1.3 NE 9 11 5 6 1023.6 1023.6 0.0
21/10:00pm 15.2 14.4 12.9 86 1.3 NE 9 11 5 6 1023.8 1023.8 0.0
21/09:30pm 15.3 14.9 13.0 86 1.3 ENE 7 11 4 6 1023.7 1023.7 0.0
21/09:00pm 16.2 14.7 13.1 82 1.7 E 13 15 7 8 1023.6 1023.6 0.0
21/08:30pm 16.6 14.8 13.3 81 1.8 E 15 19 8 10 1023.6 1023.6 0.0
21/08:00pm 17.1 14.6 13.4 79 2.1 E 19 24 10 13 1023.4 1023.4 0.0
21/07:30pm 17.6 15.1 13.5 77 2.3 E 19 22 10 12 1023.4 1023.4 0.0
21/07:00pm 18.4 15.8 13.9 75 2.6 E 20 24 11 13 1023.2 1023.2 0.0
21/06:30pm 18.9 16.1 14.2 74 2.7 ESE 22 24 12 13 1023.1 1023.1 0.0
21/06:00pm 19.5 16.3 14.3 72 3.0 ESE 24 28 13 15 1023.3 1023.3 0.0
21/05:30pm 19.9 16.4 14.5 71 3.1 ESE 26 30 14 16 1023.3 1023.3 0.0
21/05:00pm 20.5 16.7 14.6 69 3.4 ESE 28 33 15 18 1023.3 1023.3 0.0
21/04:30pm 21.2 18.7 15.1 68 3.6 ESE 22 26 12 14 1023.5 1023.5 0.0
21/04:00pm 22.5 23.2 15.6 65 4.1 SE 6 11 3 6 1023.8 1023.8 0.0
21/03:30pm 22.6 22.7 12.8 54 5.6 SE 4 6 2 3 1024.3 1024.3 0.0
21/03:00pm 22.2 22.1 12.2 53 5.6 SSE 4 6 2 3 1024.8 1024.8 0.0
21/02:30pm 21.9 21.9 12.5 55 5.3 SE 4 6 2 3 1025.2 1025.2 0.0
21/02:00pm 21.6 21.6 12.5 56 5.1 SE 4 6 2 3 1025.8 1025.8 0.0
21/01:30pm 20.9 20.6 11.3 54 5.3 E 4 4 2 2 1026.2 1026.2 0.0
21/01:00pm 20.3 19.9 11.0 55 5.1 ESE 4 6 2 3 1026.7 1026.7 0.0
21/12:30pm 19.9 20.0 11.4 58 4.7 ESE 2 6 1 3 1026.9 1026.9 0.0
21/12:00pm 19.3 19.0 11.3 60 4.4 E 4 6 2 3 1027.3 1027.3 0.0
21/11:30am 18.0 17.3 10.1 60 4.2 SSE 4 6 2 3 1027.5 1027.5 0.0
21/11:00am 18.6 18.2 11.2 62 4.0 ESE 4 6 2 3 1027.8 1027.8 0.0
21/10:30am 17.4 17.0 11.0 66 3.4 SSE 4 7 2 4 1028.1 1028.1 0.0
21/10:00am 18.6 17.7 11.2 62 4.0 ENE 7 9 4 5 1028.2 1028.2 0.0
21/09:30am 17.4 16.0 11.0 66 3.4 ENE 9 13 5 7 1028.2 1028.2 0.0
21/09:00am 16.4 14.9 10.5 68 3.1 ENE 9 11 5 6 1028.3 1028.3 0.0
21/08:30am 15.4 13.7 9.7 69 3.0 E 9 13 5 7 1028.1 1028.1 0.0
21/08:00am 14.2 11.8 10.0 76 2.2 E 13 15 7 8 1027.9 1027.9 0.0
21/07:30am 12.8 9.4 9.3 79 1.8 E 17 20 9 11 1027.6 1027.6 0.0
21/07:00am 11.6 7.8 9.0 84 1.3 E 19 20 10 11 1027.2 1027.2 0.0

Latest Capital City Observations: Canberra | Sydney | Melbourne | Brisbane | Adelaide | Perth | Hobart | Darwin

Other Formats:

Comma delimited format used in spreadsheet applications
http://www.bom.gov.au/fwo/IDV60901/IDV60901.94892.axf

JavaScript Object Notation format (JSON) in row-major order
http://www.bom.gov.au/fwo/IDV60901/IDV60901.94892.json